sensor_id;sensor_type;location;lat;lon;timestamp;temperature;humidity
38938;DHT22;24727;51.974;20.868;2022-09-09T00:00:49;11.80;1.00
38938;DHT22;24727;51.974;20.868;2022-09-09T00:03:25;11.80;1.00
38938;DHT22;24727;51.974;20.868;2022-09-09T00:11:24;11.80;1.00
38938;DHT22;24727;51.974;20.868;2022-09-09T00:13:54;11.80;1.00
38938;DHT22;24727;51.974;20.868;2022-09-09T00:16:25;11.80;1.00
38938;DHT22;24727;51.974;20.868;2022-09-09T00:21:37;11.80;1.00
38938;DHT22;24727;51.974;20.868;2022-09-09T00:24:28;11.80;1.00
38938;DHT22;24727;51.974;20.868;2022-09-09T00:27:06;11.80;1.00
38938;DHT22;24727;51.974;20.868;2022-09-09T00:29:47;11.70;1.00
38938;DHT22;24727;51.974;20.868;2022-09-09T00:32:18;11.70;1.00
38938;DHT22;24727;51.974;20.868;2022-09-09T00:34:59;11.70;1.00
38938;DHT22;24727;51.974;20.868;2022-09-09T00:37:33;11.70;1.00
38938;DHT22;24727;51.974;20.868;2022-09-09T00:40:16;11.90;1.00
38938;DHT22;24727;51.974;20.868;2022-09-09T00:42:44;12.00;1.00
38938;DHT22;24727;51.974;20.868;2022-09-09T00:47:51;12.00;1.00
38938;DHT22;24727;51.974;20.868;2022-09-09T00:53:08;12.10;1.00
38938;DHT22;24727;51.974;20.868;2022-09-09T00:56:00;12.10;1.00
38938;DHT22;24727;51.974;20.868;2022-09-09T00:58:32;12.10;1.00
38938;DHT22;24727;51.974;20.868;2022-09-09T01:01:18;12.00;1.00
38938;DHT22;24727;51.974;20.868;2022-09-09T01:06:32;12.10;1.00
38938;DHT22;24727;51.974;20.868;2022-09-09T01:09:18;12.00;1.00
38938;DHT22;24727;51.974;20.868;2022-09-09T01:12:07;12.00;1.00
38938;DHT22;24727;51.974;20.868;2022-09-09T01:17:14;12.10;1.00
38938;DHT22;24727;51.974;20.868;2022-09-09T01:25:25;12.10;1.00
38938;DHT22;24727;51.974;20.868;2022-09-09T01:28:00;12.30;1.00
38938;DHT22;24727;51.974;20.868;2022-09-09T01:30:29;12.30;1.00
38938;DHT22;24727;51.974;20.868;2022-09-09T01:32:57;12.10;1.00
38938;DHT22;24727;51.974;20.868;2022-09-09T01:35:39;12.20;1.00
38938;DHT22;24727;51.974;20.868;2022-09-09T01:38:08;12.20;1.00
38938;DHT22;24727;51.974;20.868;2022-09-09T01:40:36;12.20;1.00
38938;DHT22;24727;51.974;20.868;2022-09-09T01:43:02;12.20;1.00
38938;DHT22;24727;51.974;20.868;2022-09-09T01:45:29;12.20;1.00
38938;DHT22;24727;51.974;20.868;2022-09-09T01:47:56;12.20;1.00
38938;DHT22;24727;51.974;20.868;2022-09-09T01:50:22;12.20;1.00
38938;DHT22;24727;51.974;20.868;2022-09-09T01:52:58;12.20;1.00
38938;DHT22;24727;51.974;20.868;2022-09-09T01:55:40;12.10;1.00
38938;DHT22;24727;51.974;20.868;2022-09-09T02:01:12;12.10;1.00
38938;DHT22;24727;51.974;20.868;2022-09-09T02:03:46;12.00;1.00
38938;DHT22;24727;51.974;20.868;2022-09-09T02:08:53;12.10;1.00
38938;DHT22;24727;51.974;20.868;2022-09-09T02:11:25;12.10;1.00
38938;DHT22;24727;51.974;20.868;2022-09-09T02:14:08;12.10;1.00
38938;DHT22;24727;51.974;20.868;2022-09-09T02:16:50;12.10;1.00
38938;DHT22;24727;51.974;20.868;2022-09-09T02:19:29;12.20;1.00
38938;DHT22;24727;51.974;20.868;2022-09-09T02:21:59;12.20;1.00
38938;DHT22;24727;51.974;20.868;2022-09-09T02:24:29;12.20;1.00
38938;DHT22;24727;51.974;20.868;2022-09-09T02:26:58;12.10;1.00
38938;DHT22;24727;51.974;20.868;2022-09-09T02:29:34;12.10;1.00
38938;DHT22;24727;51.974;20.868;2022-09-09T02:32:10;12.10;1.00
38938;DHT22;24727;51.974;20.868;2022-09-09T02:34:41;12.10;1.00
38938;DHT22;24727;51.974;20.868;2022-09-09T02:37:09;12.10;1.00
38938;DHT22;24727;51.974;20.868;2022-09-09T02:39:42;12.10;1.00
38938;DHT22;24727;51.974;20.868;2022-09-09T02:42:10;12.00;1.00
38938;DHT22;24727;51.974;20.868;2022-09-09T02:44:36;12.00;1.00
38938;DHT22;24727;51.974;20.868;2022-09-09T02:47:29;12.10;1.00
38938;DHT22;24727;51.974;20.868;2022-09-09T02:50:11;12.30;1.00
38938;DHT22;24727;51.974;20.868;2022-09-09T02:52:59;12.30;1.00
38938;DHT22;24727;51.974;20.868;2022-09-09T02:55:50;12.30;1.00
38938;DHT22;24727;51.974;20.868;2022-09-09T02:58:22;12.30;1.00
38938;DHT22;24727;51.974;20.868;2022-09-09T03:00:50;12.30;1.00
38938;DHT22;24727;51.974;20.868;2022-09-09T03:03:18;12.30;1.00
38938;DHT22;24727;51.974;20.868;2022-09-09T03:05:45;12.30;1.00
38938;DHT22;24727;51.974;20.868;2022-09-09T03:08:13;12.30;1.00
38938;DHT22;24727;51.974;20.868;2022-09-09T03:10:40;12.50;1.00
38938;DHT22;24727;51.974;20.868;2022-09-09T03:13:07;12.30;1.00
38938;DHT22;24727;51.974;20.868;2022-09-09T03:15:34;12.30;1.00
38938;DHT22;24727;51.974;20.868;2022-09-09T03:18:01;12.30;1.00
38938;DHT22;24727;51.974;20.868;2022-09-09T03:20:30;12.40;1.00
38938;DHT22;24727;51.974;20.868;2022-09-09T03:22:57;12.50;1.00
38938;DHT22;24727;51.974;20.868;2022-09-09T03:25:25;12.40;1.00
38938;DHT22;24727;51.974;20.868;2022-09-09T03:27:54;12.40;1.00
38938;DHT22;24727;51.974;20.868;2022-09-09T03:30:27;12.50;1.00
38938;DHT22;24727;51.974;20.868;2022-09-09T03:32:55;12.40;1.00
38938;DHT22;24727;51.974;20.868;2022-09-09T03:35:20;12.40;1.00
38938;DHT22;24727;51.974;20.868;2022-09-09T03:37:47;12.40;1.00
38938;DHT22;24727;51.974;20.868;2022-09-09T03:40:14;12.40;1.00
38938;DHT22;24727;51.974;20.868;2022-09-09T03:42:40;12.30;1.00
38938;DHT22;24727;51.974;20.868;2022-09-09T03:45:08;12.20;1.00
38938;DHT22;24727;51.974;20.868;2022-09-09T03:47:36;12.20;1.00
38938;DHT22;24727;51.974;20.868;2022-09-09T03:50:03;12.30;1.00
38938;DHT22;24727;51.974;20.868;2022-09-09T03:52:35;12.40;1.00
38938;DHT22;24727;51.974;20.868;2022-09-09T03:55:02;12.40;1.00
38938;DHT22;24727;51.974;20.868;2022-09-09T03:57:28;12.50;1.00
38938;DHT22;24727;51.974;20.868;2022-09-09T04:11:16;12.40;1.00
38938;DHT22;24727;51.974;20.868;2022-09-09T04:13:43;12.30;1.00
38938;DHT22;24727;51.974;20.868;2022-09-09T04:16:11;12.30;1.00
38938;DHT22;24727;51.974;20.868;2022-09-09T04:18:39;12.20;1.00
38938;DHT22;24727;51.974;20.868;2022-09-09T04:21:05;12.10;1.00
38938;DHT22;24727;51.974;20.868;2022-09-09T04:23:33;12.10;1.00
38938;DHT22;24727;51.974;20.868;2022-09-09T04:26:00;12.20;1.00
38938;DHT22;24727;51.974;20.868;2022-09-09T04:28:29;12.30;1.00
38938;DHT22;24727;51.974;20.868;2022-09-09T04:30:55;12.40;1.00
38938;DHT22;24727;51.974;20.868;2022-09-09T04:33:25;12.50;1.00
38938;DHT22;24727;51.974;20.868;2022-09-09T04:35:52;12.50;1.00
38938;DHT22;24727;51.974;20.868;2022-09-09T04:38:20;12.40;1.00
38938;DHT22;24727;51.974;20.868;2022-09-09T04:40:50;12.30;1.00
38938;DHT22;24727;51.974;20.868;2022-09-09T04:43:20;12.30;1.00
38938;DHT22;24727;51.974;20.868;2022-09-09T04:45:48;12.30;1.00
38938;DHT22;24727;51.974;20.868;2022-09-09T04:48:15;12.30;1.00
38938;DHT22;24727;51.974;20.868;2022-09-09T04:50:41;12.30;1.00
38938;DHT22;24727;51.974;20.868;2022-09-09T04:53:07;12.30;1.00
38938;DHT22;24727;51.974;20.868;2022-09-09T04:55:34;12.40;1.00
38938;DHT22;24727;51.974;20.868;2022-09-09T04:58:04;12.40;1.00
38938;DHT22;24727;51.974;20.868;2022-09-09T05:00:31;12.40;1.00
38938;DHT22;24727;51.974;20.868;2022-09-09T05:03:05;12.50;1.00
38938;DHT22;24727;51.974;20.868;2022-09-09T05:05:33;12.60;1.00
38938;DHT22;24727;51.974;20.868;2022-09-09T05:08:05;12.50;1.00
38938;DHT22;24727;51.974;20.868;2022-09-09T05:10:32;12.50;1.00
38938;DHT22;24727;51.974;20.868;2022-09-09T05:13:00;12.40;1.00
38938;DHT22;24727;51.974;20.868;2022-09-09T05:15:25;12.50;1.00
38938;DHT22;24727;51.974;20.868;2022-09-09T05:17:56;12.60;1.00
38938;DHT22;24727;51.974;20.868;2022-09-09T05:20:22;12.60;1.00
38938;DHT22;24727;51.974;20.868;2022-09-09T05:22:48;12.50;1.00
38938;DHT22;24727;51.974;20.868;2022-09-09T05:25:18;12.40;1.00
38938;DHT22;24727;51.974;20.868;2022-09-09T05:27:45;12.50;1.00
38938;DHT22;24727;51.974;20.868;2022-09-09T05:30:11;12.60;1.00
38938;DHT22;24727;51.974;20.868;2022-09-09T05:32:37;12.50;1.00
38938;DHT22;24727;51.974;20.868;2022-09-09T05:35:03;12.60;1.00
38938;DHT22;24727;51.974;20.868;2022-09-09T05:37:31;12.70;1.00
38938;DHT22;24727;51.974;20.868;2022-09-09T05:39:57;12.70;1.00
38938;DHT22;24727;51.974;20.868;2022-09-09T05:42:24;12.60;1.00
38938;DHT22;24727;51.974;20.868;2022-09-09T05:44:50;12.50;1.00
38938;DHT22;24727;51.974;20.868;2022-09-09T05:47:17;12.50;1.00
38938;DHT22;24727;51.974;20.868;2022-09-09T05:49:43;12.50;1.00
38938;DHT22;24727;51.974;20.868;2022-09-09T05:52:09;12.60;1.00
38938;DHT22;24727;51.974;20.868;2022-09-09T05:54:35;12.60;1.00
38938;DHT22;24727;51.974;20.868;2022-09-09T05:57:03;12.50;1.00
38938;DHT22;24727;51.974;20.868;2022-09-09T05:59:29;12.50;1.00
38938;DHT22;24727;51.974;20.868;2022-09-09T06:01:56;12.40;1.00
38938;DHT22;24727;51.974;20.868;2022-09-09T06:04:22;12.50;1.00
38938;DHT22;24727;51.974;20.868;2022-09-09T06:06:48;12.60;1.00
38938;DHT22;24727;51.974;20.868;2022-09-09T06:09:14;12.70;1.00
38938;DHT22;24727;51.974;20.868;2022-09-09T06:11:41;12.70;1.00
38938;DHT22;24727;51.974;20.868;2022-09-09T06:14:09;12.60;1.00
38938;DHT22;24727;51.974;20.868;2022-09-09T06:16:35;12.70;1.00
38938;DHT22;24727;51.974;20.868;2022-09-09T06:19:03;12.80;1.00
38938;DHT22;24727;51.974;20.868;2022-09-09T06:21:36;12.90;1.00
38938;DHT22;24727;51.974;20.868;2022-09-09T06:24:07;12.90;1.00
38938;DHT22;24727;51.974;20.868;2022-09-09T06:26:35;13.00;1.00
38938;DHT22;24727;51.974;20.868;2022-09-09T06:29:02;13.00;1.00
38938;DHT22;24727;51.974;20.868;2022-09-09T06:31:31;13.00;1.00
38938;DHT22;24727;51.974;20.868;2022-09-09T06:33:58;13.10;1.00
38938;DHT22;24727;51.974;20.868;2022-09-09T06:36:31;13.10;1.00
38938;DHT22;24727;51.974;20.868;2022-09-09T06:38:57;13.10;1.00
38938;DHT22;24727;51.974;20.868;2022-09-09T06:41:26;13.10;1.00
38938;DHT22;24727;51.974;20.868;2022-09-09T06:43:52;13.10;1.00
38938;DHT22;24727;51.974;20.868;2022-09-09T06:46:22;13.10;1.00
38938;DHT22;24727;51.974;20.868;2022-09-09T06:48:53;13.10;1.00
38938;DHT22;24727;51.974;20.868;2022-09-09T06:51:22;13.20;1.00
38938;DHT22;24727;51.974;20.868;2022-09-09T06:53:53;13.20;1.00
38938;DHT22;24727;51.974;20.868;2022-09-09T06:56:40;13.20;1.00
38938;DHT22;24727;51.974;20.868;2022-09-09T06:59:08;13.10;1.00
38938;DHT22;24727;51.974;20.868;2022-09-09T07:01:39;13.20;1.00
38938;DHT22;24727;51.974;20.868;2022-09-09T07:04:16;13.20;1.00
38938;DHT22;24727;51.974;20.868;2022-09-09T07:06:44;13.30;1.00
38938;DHT22;24727;51.974;20.868;2022-09-09T07:09:13;13.30;1.00
38938;DHT22;24727;51.974;20.868;2022-09-09T07:11:47;13.30;1.00
38938;DHT22;24727;51.974;20.868;2022-09-09T07:14:14;13.40;1.00
38938;DHT22;24727;51.974;20.868;2022-09-09T07:16:42;13.40;1.00
38938;DHT22;24727;51.974;20.868;2022-09-09T07:19:08;13.50;1.00
38938;DHT22;24727;51.974;20.868;2022-09-09T07:21:34;13.50;1.00
38938;DHT22;24727;51.974;20.868;2022-09-09T07:24:01;13.60;1.00
38938;DHT22;24727;51.974;20.868;2022-09-09T07:26:29;13.60;1.00
38938;DHT22;24727;51.974;20.868;2022-09-09T07:28:56;13.70;1.00
38938;DHT22;24727;51.974;20.868;2022-09-09T07:31:31;13.70;1.00
38938;DHT22;24727;51.974;20.868;2022-09-09T07:33:58;13.70;1.00
38938;DHT22;24727;51.974;20.868;2022-09-09T07:36:34;13.60;1.00
38938;DHT22;24727;51.974;20.868;2022-09-09T07:39:06;13.80;1.00
38938;DHT22;24727;51.974;20.868;2022-09-09T07:41:38;13.60;1.00
38938;DHT22;24727;51.974;20.868;2022-09-09T07:44:09;13.60;1.00
38938;DHT22;24727;51.974;20.868;2022-09-09T07:46:37;13.60;1.00
38938;DHT22;24727;51.974;20.868;2022-09-09T07:49:05;13.70;1.00
38938;DHT22;24727;51.974;20.868;2022-09-09T07:51:34;13.80;1.00
38938;DHT22;24727;51.974;20.868;2022-09-09T07:54:04;13.80;1.00
38938;DHT22;24727;51.974;20.868;2022-09-09T07:56:31;13.80;1.00
38938;DHT22;24727;51.974;20.868;2022-09-09T07:58:58;13.80;1.00
38938;DHT22;24727;51.974;20.868;2022-09-09T08:01:35;13.80;1.00
38938;DHT22;24727;51.974;20.868;2022-09-09T08:04:11;13.80;1.00
38938;DHT22;24727;51.974;20.868;2022-09-09T08:07:03;13.80;1.00
38938;DHT22;24727;51.974;20.868;2022-09-09T08:09:29;13.80;1.00
38938;DHT22;24727;51.974;20.868;2022-09-09T08:11:56;13.80;1.00
38938;DHT22;24727;51.974;20.868;2022-09-09T08:14:24;13.90;1.00
38938;DHT22;24727;51.974;20.868;2022-09-09T08:16:51;13.90;1.00
38938;DHT22;24727;51.974;20.868;2022-09-09T08:19:19;14.00;1.00
38938;DHT22;24727;51.974;20.868;2022-09-09T08:21:45;14.00;1.00
38938;DHT22;24727;51.974;20.868;2022-09-09T08:24:12;14.10;1.00
38938;DHT22;24727;51.974;20.868;2022-09-09T08:26:42;14.10;1.00
38938;DHT22;24727;51.974;20.868;2022-09-09T08:29:10;14.20;1.00
38938;DHT22;24727;51.974;20.868;2022-09-09T08:31:40;14.20;1.00
38938;DHT22;24727;51.974;20.868;2022-09-09T08:34:09;14.20;1.00
38938;DHT22;24727;51.974;20.868;2022-09-09T08:36:42;14.30;1.00
38938;DHT22;24727;51.974;20.868;2022-09-09T08:39:13;14.30;1.00
38938;DHT22;24727;51.974;20.868;2022-09-09T08:52:45;14.60;1.00
38938;DHT22;24727;51.974;20.868;2022-09-09T08:58:02;14.60;1.00
38938;DHT22;24727;51.974;20.868;2022-09-09T09:03:35;14.80;1.00
38938;DHT22;24727;51.974;20.868;2022-09-09T09:09:21;14.80;1.00
38938;DHT22;24727;51.974;20.868;2022-09-09T09:11:58;14.90;1.00
38938;DHT22;24727;51.974;20.868;2022-09-09T09:14:29;15.00;1.00
38938;DHT22;24727;51.974;20.868;2022-09-09T09:17:05;15.00;1.00
38938;DHT22;24727;51.974;20.868;2022-09-09T09:19:34;14.80;1.00
38938;DHT22;24727;51.974;20.868;2022-09-09T09:22:21;14.80;1.00
38938;DHT22;24727;51.974;20.868;2022-09-09T09:27:36;15.00;1.00
38938;DHT22;24727;51.974;20.868;2022-09-09T09:30:26;15.00;1.00
38938;DHT22;24727;51.974;20.868;2022-09-09T09:33:20;15.10;1.00
38938;DHT22;24727;51.974;20.868;2022-09-09T09:35:51;15.10;1.00
38938;DHT22;24727;51.974;20.868;2022-09-09T09:38:22;15.10;1.00
38938;DHT22;24727;51.974;20.868;2022-09-09T09:40:57;15.10;1.00
38938;DHT22;24727;51.974;20.868;2022-09-09T09:43:40;15.10;1.00
38938;DHT22;24727;51.974;20.868;2022-09-09T09:46:20;15.20;1.00
38938;DHT22;24727;51.974;20.868;2022-09-09T09:49:04;15.20;1.00
38938;DHT22;24727;51.974;20.868;2022-09-09T09:51:32;15.20;1.00
38938;DHT22;24727;51.974;20.868;2022-09-09T09:56:45;15.30;1.00
38938;DHT22;24727;51.974;20.868;2022-09-09T10:01:49;15.30;1.00
38938;DHT22;24727;51.974;20.868;2022-09-09T10:04:17;15.40;1.00
38938;DHT22;24727;51.974;20.868;2022-09-09T10:06:44;15.50;1.00
38938;DHT22;24727;51.974;20.868;2022-09-09T10:09:27;15.50;1.00
38938;DHT22;24727;51.974;20.868;2022-09-09T10:18:03;15.70;1.00
38938;DHT22;24727;51.974;20.868;2022-09-09T10:31:47;15.80;1.00
38938;DHT22;24727;51.974;20.868;2022-09-09T10:34:55;15.80;1.00
38938;DHT22;24727;51.974;20.868;2022-09-09T10:40:41;15.70;1.00
38938;DHT22;24727;51.974;20.868;2022-09-09T10:46:45;15.70;1.00
38938;DHT22;24727;51.974;20.868;2022-09-09T11:00:05;15.80;1.00
38938;DHT22;24727;51.974;20.868;2022-09-09T11:02:34;15.90;1.00
38938;DHT22;24727;51.974;20.868;2022-09-09T11:05:24;16.00;1.00
38938;DHT22;24727;51.974;20.868;2022-09-09T11:13:02;15.90;1.00
38938;DHT22;24727;51.974;20.868;2022-09-09T11:15:36;16.00;1.00
38938;DHT22;24727;51.974;20.868;2022-09-09T11:18:04;16.00;1.00
38938;DHT22;24727;51.974;20.868;2022-09-09T11:20:33;16.10;1.00
38938;DHT22;24727;51.974;20.868;2022-09-09T11:23:09;16.00;1.00
38938;DHT22;24727;51.974;20.868;2022-09-09T11:25:41;16.00;1.00
38938;DHT22;24727;51.974;20.868;2022-09-09T11:42:19;15.80;1.00
38938;DHT22;24727;51.974;20.868;2022-09-09T11:44:46;15.80;1.00
38938;DHT22;24727;51.974;20.868;2022-09-09T11:47:26;15.90;1.00
38938;DHT22;24727;51.974;20.868;2022-09-09T11:52:46;15.90;1.00
38938;DHT22;24727;51.974;20.868;2022-09-09T11:55:39;16.00;1.00
38938;DHT22;24727;51.974;20.868;2022-09-09T11:58:13;16.10;1.00
38938;DHT22;24727;51.974;20.868;2022-09-09T12:00:44;16.20;1.00
38938;DHT22;24727;51.974;20.868;2022-09-09T12:05:59;16.30;1.00
38938;DHT22;24727;51.974;20.868;2022-09-09T12:08:29;16.30;1.00
38938;DHT22;24727;51.974;20.868;2022-09-09T12:10:58;16.30;1.00
38938;DHT22;24727;51.974;20.868;2022-09-09T12:13:26;16.30;1.00
38938;DHT22;24727;51.974;20.868;2022-09-09T12:15:55;16.30;1.00
38938;DHT22;24727;51.974;20.868;2022-09-09T12:18:48;16.20;1.00
38938;DHT22;24727;51.974;20.868;2022-09-09T12:22:13;16.10;1.00
38938;DHT22;24727;51.974;20.868;2022-09-09T12:24:41;16.10;1.00
38938;DHT22;24727;51.974;20.868;2022-09-09T12:30:09;16.20;1.00
38938;DHT22;24727;51.974;20.868;2022-09-09T12:32:36;16.30;1.00
38938;DHT22;24727;51.974;20.868;2022-09-09T12:35:10;16.30;1.00
38938;DHT22;24727;51.974;20.868;2022-09-09T12:37:55;16.20;1.00
38938;DHT22;24727;51.974;20.868;2022-09-09T12:40:27;16.10;1.00
38938;DHT22;24727;51.974;20.868;2022-09-09T12:42:54;16.10;1.00
38938;DHT22;24727;51.974;20.868;2022-09-09T12:45:29;16.10;1.00
38938;DHT22;24727;51.974;20.868;2022-09-09T12:48:05;15.90;1.00
38938;DHT22;24727;51.974;20.868;2022-09-09T12:50:35;16.00;1.00
38938;DHT22;24727;51.974;20.868;2022-09-09T12:53:21;15.90;1.00
38938;DHT22;24727;51.974;20.868;2022-09-09T12:56:03;15.90;1.00
38938;DHT22;24727;51.974;20.868;2022-09-09T12:58:30;15.80;1.00
38938;DHT22;24727;51.974;20.868;2022-09-09T13:01:02;15.90;1.00
38938;DHT22;24727;51.974;20.868;2022-09-09T13:03:41;16.10;1.00
38938;DHT22;24727;51.974;20.868;2022-09-09T13:06:23;16.10;1.00
38938;DHT22;24727;51.974;20.868;2022-09-09T13:08:53;16.10;1.00
38938;DHT22;24727;51.974;20.868;2022-09-09T13:11:36;16.00;1.00
38938;DHT22;24727;51.974;20.868;2022-09-09T13:14:04;16.10;1.00
38938;DHT22;24727;51.974;20.868;2022-09-09T13:16:36;16.20;1.00
38938;DHT22;24727;51.974;20.868;2022-09-09T13:19:08;16.20;1.00
38938;DHT22;24727;51.974;20.868;2022-09-09T13:21:36;16.30;1.00
38938;DHT22;24727;51.974;20.868;2022-09-09T13:24:05;16.30;1.00
38938;DHT22;24727;51.974;20.868;2022-09-09T13:26:33;16.30;1.00
38938;DHT22;24727;51.974;20.868;2022-09-09T13:29:16;16.30;1.00
38938;DHT22;24727;51.974;20.868;2022-09-09T13:31:46;16.40;1.00
38938;DHT22;24727;51.974;20.868;2022-09-09T13:34:14;16.40;1.00
38938;DHT22;24727;51.974;20.868;2022-09-09T13:36:40;16.40;1.00
38938;DHT22;24727;51.974;20.868;2022-09-09T13:39:16;16.40;1.00
38938;DHT22;24727;51.974;20.868;2022-09-09T13:41:46;16.30;1.00
38938;DHT22;24727;51.974;20.868;2022-09-09T13:44:28;16.20;1.00
38938;DHT22;24727;51.974;20.868;2022-09-09T13:47:04;16.20;1.00
38938;DHT22;24727;51.974;20.868;2022-09-09T13:49:31;16.20;1.00
38938;DHT22;24727;51.974;20.868;2022-09-09T13:52:10;16.20;1.00
38938;DHT22;24727;51.974;20.868;2022-09-09T13:54:37;16.30;1.00
38938;DHT22;24727;51.974;20.868;2022-09-09T13:57:04;16.30;1.00
38938;DHT22;24727;51.974;20.868;2022-09-09T13:59:31;16.30;1.00
38938;DHT22;24727;51.974;20.868;2022-09-09T14:01:59;16.40;1.00
38938;DHT22;24727;51.974;20.868;2022-09-09T14:04:27;16.40;1.00
38938;DHT22;24727;51.974;20.868;2022-09-09T14:06:54;16.40;1.00
38938;DHT22;24727;51.974;20.868;2022-09-09T14:09:21;16.50;1.00
38938;DHT22;24727;51.974;20.868;2022-09-09T14:11:48;16.60;1.00
38938;DHT22;24727;51.974;20.868;2022-09-09T14:14:16;16.50;1.00
38938;DHT22;24727;51.974;20.868;2022-09-09T14:16:44;16.30;1.00
38938;DHT22;24727;51.974;20.868;2022-09-09T14:19:14;16.10;1.00
38938;DHT22;24727;51.974;20.868;2022-09-09T14:21:42;16.10;1.00
38938;DHT22;24727;51.974;20.868;2022-09-09T14:24:09;16.30;1.00
38938;DHT22;24727;51.974;20.868;2022-09-09T14:26:37;16.40;1.00
38938;DHT22;24727;51.974;20.868;2022-09-09T14:29:05;16.40;1.00
38938;DHT22;24727;51.974;20.868;2022-09-09T14:31:33;16.40;1.00
38938;DHT22;24727;51.974;20.868;2022-09-09T14:34:08;16.30;1.00
38938;DHT22;24727;51.974;20.868;2022-09-09T14:36:38;16.40;1.00
38938;DHT22;24727;51.974;20.868;2022-09-09T14:39:09;16.40;1.00
38938;DHT22;24727;51.974;20.868;2022-09-09T14:41:37;16.60;1.00
38938;DHT22;24727;51.974;20.868;2022-09-09T14:44:05;16.70;1.00
38938;DHT22;24727;51.974;20.868;2022-09-09T14:46:34;16.70;1.00
38938;DHT22;24727;51.974;20.868;2022-09-09T14:49:01;16.60;1.00
38938;DHT22;24727;51.974;20.868;2022-09-09T14:51:28;16.60;1.00
38938;DHT22;24727;51.974;20.868;2022-09-09T14:53:57;16.60;1.00
38938;DHT22;24727;51.974;20.868;2022-09-09T14:56:27;16.50;1.00
38938;DHT22;24727;51.974;20.868;2022-09-09T14:58:58;16.70;1.00
38938;DHT22;24727;51.974;20.868;2022-09-09T15:01:29;16.70;1.00
38938;DHT22;24727;51.974;20.868;2022-09-09T15:04:03;16.70;1.00
38938;DHT22;24727;51.974;20.868;2022-09-09T15:06:34;16.50;1.00
38938;DHT22;24727;51.974;20.868;2022-09-09T15:09:06;16.60;1.00
38938;DHT22;24727;51.974;20.868;2022-09-09T15:11:37;16.60;1.00
38938;DHT22;24727;51.974;20.868;2022-09-09T15:14:06;16.50;1.00
38938;DHT22;24727;51.974;20.868;2022-09-09T15:16:39;16.40;1.00
38938;DHT22;24727;51.974;20.868;2022-09-09T15:19:08;16.30;1.00
38938;DHT22;24727;51.974;20.868;2022-09-09T15:21:37;16.40;1.00
38938;DHT22;24727;51.974;20.868;2022-09-09T15:24:05;16.50;1.00
38938;DHT22;24727;51.974;20.868;2022-09-09T15:26:34;16.50;1.00
38938;DHT22;24727;51.974;20.868;2022-09-09T15:29:05;16.50;1.00
38938;DHT22;24727;51.974;20.868;2022-09-09T15:31:35;16.60;1.00
38938;DHT22;24727;51.974;20.868;2022-09-09T15:34:04;16.70;1.00
38938;DHT22;24727;51.974;20.868;2022-09-09T15:36:36;16.60;1.00
38938;DHT22;24727;51.974;20.868;2022-09-09T15:39:08;16.60;1.00
38938;DHT22;24727;51.974;20.868;2022-09-09T15:41:39;16.70;1.00
38938;DHT22;24727;51.974;20.868;2022-09-09T15:44:07;16.70;1.00
38938;DHT22;24727;51.974;20.868;2022-09-09T15:49:24;16.80;1.00
38938;DHT22;24727;51.974;20.868;2022-09-09T15:51:55;16.70;1.00
38938;DHT22;24727;51.974;20.868;2022-09-09T15:54:24;16.60;1.00
38938;DHT22;24727;51.974;20.868;2022-09-09T15:56:53;16.60;1.00
38938;DHT22;24727;51.974;20.868;2022-09-09T15:59:25;16.50;1.00
38938;DHT22;24727;51.974;20.868;2022-09-09T16:01:52;16.50;1.00
38938;DHT22;24727;51.974;20.868;2022-09-09T16:04:18;16.50;1.00
38938;DHT22;24727;51.974;20.868;2022-09-09T16:06:54;16.40;1.00
38938;DHT22;24727;51.974;20.868;2022-09-09T16:09:20;16.30;1.00
38938;DHT22;24727;51.974;20.868;2022-09-09T16:11:46;16.10;1.00
38938;DHT22;24727;51.974;20.868;2022-09-09T16:14:14;16.00;1.00
38938;DHT22;24727;51.974;20.868;2022-09-09T16:16:42;15.90;1.00
38938;DHT22;24727;51.974;20.868;2022-09-09T16:19:12;15.80;1.00
38938;DHT22;24727;51.974;20.868;2022-09-09T16:21:46;15.90;1.00
38938;DHT22;24727;51.974;20.868;2022-09-09T16:24:16;15.90;1.00
38938;DHT22;24727;51.974;20.868;2022-09-09T16:26:48;15.80;1.00
38938;DHT22;24727;51.974;20.868;2022-09-09T16:29:16;15.90;1.00
38938;DHT22;24727;51.974;20.868;2022-09-09T16:31:43;15.90;1.00
38938;DHT22;24727;51.974;20.868;2022-09-09T16:34:10;16.00;1.00
38938;DHT22;24727;51.974;20.868;2022-09-09T16:36:39;16.10;1.00
38938;DHT22;24727;51.974;20.868;2022-09-09T16:39:10;16.10;1.00
38938;DHT22;24727;51.974;20.868;2022-09-09T16:41:39;16.10;1.00
38938;DHT22;24727;51.974;20.868;2022-09-09T16:44:13;16.00;1.00
38938;DHT22;24727;51.974;20.868;2022-09-09T16:46:42;16.00;1.00
38938;DHT22;24727;51.974;20.868;2022-09-09T16:49:12;16.00;1.00
38938;DHT22;24727;51.974;20.868;2022-09-09T16:51:46;16.10;1.00
38938;DHT22;24727;51.974;20.868;2022-09-09T16:54:14;16.10;1.00
38938;DHT22;24727;51.974;20.868;2022-09-09T16:56:43;16.10;1.00
38938;DHT22;24727;51.974;20.868;2022-09-09T16:59:12;16.10;1.00
38938;DHT22;24727;51.974;20.868;2022-09-09T17:01:40;16.20;1.00
38938;DHT22;24727;51.974;20.868;2022-09-09T17:04:12;16.10;1.00
38938;DHT22;24727;51.974;20.868;2022-09-09T17:06:39;16.00;1.00
38938;DHT22;24727;51.974;20.868;2022-09-09T17:09:10;16.00;1.00
38938;DHT22;24727;51.974;20.868;2022-09-09T17:11:38;16.00;1.00
38938;DHT22;24727;51.974;20.868;2022-09-09T17:14:19;15.80;1.00
38938;DHT22;24727;51.974;20.868;2022-09-09T17:16:45;15.80;1.00
38938;DHT22;24727;51.974;20.868;2022-09-09T17:19:12;15.70;1.00
38938;DHT22;24727;51.974;20.868;2022-09-09T17:21:39;15.60;1.00
38938;DHT22;24727;51.974;20.868;2022-09-09T17:24:05;15.50;1.00
38938;DHT22;24727;51.974;20.868;2022-09-09T17:26:33;15.40;1.00
38938;DHT22;24727;51.974;20.868;2022-09-09T17:29:00;15.50;1.00
38938;DHT22;24727;51.974;20.868;2022-09-09T17:31:27;15.60;1.00
38938;DHT22;24727;51.974;20.868;2022-09-09T17:33:54;15.60;1.00
38938;DHT22;24727;51.974;20.868;2022-09-09T17:36:25;15.60;1.00
38938;DHT22;24727;51.974;20.868;2022-09-09T17:38:52;15.60;1.00
38938;DHT22;24727;51.974;20.868;2022-09-09T17:41:24;15.50;1.00
38938;DHT22;24727;51.974;20.868;2022-09-09T17:43:51;15.60;1.00
38938;DHT22;24727;51.974;20.868;2022-09-09T17:46:22;15.60;1.00
38938;DHT22;24727;51.974;20.868;2022-09-09T17:48:51;15.50;1.00
38938;DHT22;24727;51.974;20.868;2022-09-09T17:51:21;15.50;1.00
38938;DHT22;24727;51.974;20.868;2022-09-09T17:53:52;15.40;1.00
38938;DHT22;24727;51.974;20.868;2022-09-09T17:56:21;15.40;1.00
38938;DHT22;24727;51.974;20.868;2022-09-09T17:58:49;15.50;1.00
38938;DHT22;24727;51.974;20.868;2022-09-09T18:01:21;15.50;1.00
38938;DHT22;24727;51.974;20.868;2022-09-09T18:03:52;15.50;1.00
38938;DHT22;24727;51.974;20.868;2022-09-09T18:06:25;15.50;1.00
38938;DHT22;24727;51.974;20.868;2022-09-09T18:08:59;15.40;1.00